Time;durP1;ratioP1;P1;durP2;ratioP2;P2;SDS_P1;SDS_P2;PMS_P1;PMS_P2;Temp;Humidity;BMP_temperature;BMP_pressure;BME280_temperature;BME280_humidity;BME280_pressure;Samples;Min_cycle;Max_cycle;Signal;HPM_P1;HPM_P2
2021/07/23 00:02:15;;;;;;;12.63;10.80;;;19.00;97.70;;;;;;6220212;23;20404;-83
2021/07/23 00:04:42;;;;;;;11.80;10.60;;;19.00;98.00;;;;;;6220687;23;20467;-84
2021/07/23 00:07:09;;;;;;;12.63;10.57;;;18.90;98.20;;;;;;6220965;23;20485;-84
2021/07/23 00:09:37;;;;;;;12.07;10.77;;;18.70;98.50;;;;;;6220696;23;20454;-83
2021/07/23 00:12:04;;;;;;;11.33;10.23;;;18.70;99.00;;;;;;6220008;23;20409;-84
2021/07/23 00:14:31;;;;;;;11.53;10.50;;;18.60;99.30;;;;;;6221026;23;20404;-83
2021/07/23 00:16:58;;;;;;;12.70;11.60;;;18.70;99.40;;;;;;6220639;23;20409;-84
2021/07/23 00:19:25;;;;;;;11.27;10.20;;;18.70;99.40;;;;;;6220647;23;20435;-84
2021/07/23 00:21:51;;;;;;;12.87;10.10;;;18.70;99.30;;;;;;6219952;23;20410;-83
2021/07/23 00:24:18;;;;;;;12.00;9.47;;;18.70;99.50;;;;;;6220491;23;20775;-83
2021/07/23 00:26:52;;;;;;;12.10;10.90;;;18.60;99.80;;;;;;6221271;23;20416;-83
2021/07/23 00:29:19;;;;;;;12.90;10.00;;;18.60;99.80;;;;;;6220589;23;20420;-83
2021/07/23 00:31:45;;;;;;;11.80;9.60;;;18.50;99.90;;;;;;6220570;23;20416;-83
2021/07/23 00:34:12;;;;;;;10.77;9.67;;;18.60;99.90;;;;;;6220091;23;20408;-84
2021/07/23 00:36:39;;;;;;;11.70;9.90;;;18.50;99.90;;;;;;6220460;23;20414;-83
2021/07/23 00:39:06;;;;;;;10.57;9.67;;;18.40;99.90;;;;;;6220450;23;20415;-84
2021/07/23 00:41:32;;;;;;;14.80;10.60;;;18.50;99.90;;;;;;6220617;23;20418;-83
2021/07/23 00:44:00;;;;;;;12.73;11.33;;;18.40;99.90;;;;;;6220256;23;20970;-84
2021/07/23 00:46:30;;;;;;;11.33;9.77;;;18.40;99.90;;;;;;6220857;23;20411;-83
2021/07/23 00:48:57;;;;;;;12.87;11.57;;;18.40;99.90;;;;;;6220580;23;20408;-83
2021/07/23 00:51:24;;;;;;;13.60;10.30;;;18.40;99.90;;;;;;6220428;23;20439;-83
2021/07/23 00:53:52;;;;;;;12.83;10.17;;;18.50;99.90;;;;;;6220739;23;20408;-83
2021/07/23 00:56:19;;;;;;;11.07;10.00;;;18.50;99.90;;;;;;6221207;23;20438;-83
2021/07/23 00:58:47;;;;;;;11.20;10.10;;;18.50;99.90;;;;;;6220124;23;20417;-82
2021/07/23 01:01:15;;;;;;;11.03;9.93;;;18.50;99.90;;;;;;6220737;23;20985;-83
2021/07/23 01:03:43;;;;;;;12.83;11.13;;;18.60;99.90;;;;;;6219126;23;20954;-83
2021/07/23 01:06:10;;;;;;;13.97;11.10;;;18.60;99.90;;;;;;6220639;23;20412;-83
2021/07/23 01:08:37;;;;;;;10.53;9.53;;;18.40;99.90;;;;;;6220958;23;20415;-84
2021/07/23 01:11:04;;;;;;;12.60;9.43;;;18.30;99.90;;;;;;6220534;23;20764;-84
2021/07/23 01:13:31;;;;;;;11.93;10.77;;;18.40;99.90;;;;;;6220058;23;20410;-83
2021/07/23 01:15:57;;;;;;;12.93;11.60;;;18.30;99.90;;;;;;6220153;23;20416;-83
2021/07/23 01:18:25;;;;;;;11.40;10.10;;;18.30;99.90;;;;;;6220380;23;20407;-83
2021/07/23 01:20:53;;;;;;;11.87;10.77;;;18.20;99.90;;;;;;6220386;23;20440;-84
2021/07/23 01:23:29;;;;;;;14.00;11.13;;;18.30;99.90;;;;;;6220123;23;20753;-84
2021/07/23 01:25:56;;;;;;;12.40;11.07;;;18.30;99.90;;;;;;6222210;23;20390;-83
2021/07/23 01:28:23;;;;;;;11.00;10.00;;;18.30;99.90;;;;;;6222226;23;20735;-83
2021/07/23 01:30:50;;;;;;;12.23;9.70;;;18.30;99.90;;;;;;6222269;23;20431;-83
2021/07/23 01:33:17;;;;;;;12.53;11.23;;;18.40;99.90;;;;;;6221711;23;20409;-83
2021/07/23 01:35:43;;;;;;;12.10;9.87;;;18.40;99.90;;;;;;6221646;23;20449;-83
2021/07/23 01:38:11;;;;;;;14.00;10.57;;;18.40;99.90;;;;;;6222042;23;20407;-83
2021/07/23 01:40:39;;;;;;;11.90;10.30;;;18.40;99.90;;;;;;6221867;23;20434;-83
2021/07/23 01:43:05;;;;;;;11.00;9.90;;;18.40;99.90;;;;;;6221814;23;20416;-83
2021/07/23 01:45:33;;;;;;;12.53;11.33;;;18.40;99.90;;;;;;6222195;23;20417;-83
2021/07/23 01:47:59;;;;;;;15.23;10.00;;;18.40;99.90;;;;;;6221597;23;20952;-83
2021/07/23 01:50:26;;;;;;;11.87;10.77;;;18.40;99.90;;;;;;6222218;23;20447;-83
2021/07/23 01:52:53;;;;;;;13.87;11.70;;;18.40;99.90;;;;;;6221833;23;20748;-83
2021/07/23 01:55:20;;;;;;;11.23;9.33;;;18.40;99.90;;;;;;6222694;23;20442;-83
2021/07/23 01:57:48;;;;;;;10.80;9.80;;;18.30;99.90;;;;;;6221431;23;20410;-83
2021/07/23 02:00:15;;;;;;;9.97;8.97;;;18.30;99.90;;;;;;6221595;23;20431;-84
2021/07/23 02:02:42;;;;;;;10.70;9.60;;;18.30;99.90;;;;;;6221287;23;20416;-83
2021/07/23 02:05:10;;;;;;;12.80;10.70;;;18.30;99.90;;;;;;6223441;23;20718;-83
2021/07/23 02:07:37;;;;;;;10.90;9.80;;;18.30;99.90;;;;;;6223045;23;20418;-83
2021/07/23 02:10:05;;;;;;;10.97;9.90;;;18.20;99.90;;;;;;6222345;23;20431;-83
2021/07/23 02:12:32;;;;;;;12.50;11.30;;;18.20;99.90;;;;;;6221777;23;20411;-82
2021/07/23 02:15:00;;;;;;;11.97;10.67;;;18.20;99.90;;;;;;6222162;23;20443;-83
2021/07/23 02:17:27;;;;;;;10.67;9.67;;;18.20;99.90;;;;;;6222347;23;20415;-83
2021/07/23 02:19:53;;;;;;;10.70;9.70;;;18.10;99.90;;;;;;6221425;23;20432;-83
2021/07/23 02:22:20;;;;;;;11.07;9.73;;;18.10;99.90;;;;;;6221291;23;20416;-83
2021/07/23 02:24:47;;;;;;;12.80;9.90;;;18.10;99.90;;;;;;6221633;23;20404;-83
2021/07/23 02:27:13;;;;;;;11.00;9.40;;;18.10;99.90;;;;;;6221904;23;20415;-83
2021/07/23 02:29:40;;;;;;;11.50;10.40;;;18.10;99.90;;;;;;6221784;23;20428;-83
2021/07/23 02:32:08;;;;;;;10.50;9.50;;;18.00;99.90;;;;;;6221401;23;20413;-83
2021/07/23 02:34:35;;;;;;;11.27;9.97;;;18.00;99.90;;;;;;6221031;23;20456;-83
2021/07/23 02:37:02;;;;;;;10.80;9.70;;;18.00;99.90;;;;;;6221420;23;20411;-83
2021/07/23 02:39:28;;;;;;;11.00;9.83;;;18.00;99.90;;;;;;6220069;23;20428;-84
2021/07/23 02:41:55;;;;;;;10.70;9.70;;;17.90;99.90;;;;;;6219318;23;20407;-83
2021/07/23 02:44:22;;;;;;;11.13;9.77;;;17.90;99.90;;;;;;6221049;23;20700;-83
2021/07/23 02:46:49;;;;;;;11.33;10.10;;;17.90;99.90;;;;;;6221420;23;20415;-83
2021/07/23 02:49:17;;;;;;;13.90;9.73;;;17.80;99.90;;;;;;6221302;23;20414;-83
2021/07/23 02:51:43;;;;;;;11.70;10.47;;;17.80;99.90;;;;;;6221136;23;20383;-83
2021/07/23 02:54:10;;;;;;;10.50;9.40;;;17.80;99.90;;;;;;6221386;23;20779;-83
2021/07/23 02:56:37;;;;;;;10.83;9.77;;;17.70;99.90;;;;;;6221154;23;20412;-83
2021/07/23 02:59:03;;;;;;;11.20;9.60;;;17.70;99.90;;;;;;6221179;23;20408;-83
2021/07/23 03:01:30;;;;;;;12.57;10.30;;;17.70;99.90;;;;;;6220642;23;20411;-83
2021/07/23 03:03:57;;;;;;;10.40;9.50;;;17.70;99.90;;;;;;6220734;23;20418;-83
2021/07/23 03:06:25;;;;;;;12.77;11.57;;;17.60;99.90;;;;;;6221701;23;20437;-83
2021/07/23 03:08:52;;;;;;;12.43;11.23;;;17.60;99.90;;;;;;6221189;23;20410;-83
2021/07/23 03:11:18;;;;;;;13.33;11.90;;;17.60;99.90;;;;;;6220811;23;20438;-83
2021/07/23 03:13:45;;;;;;;16.00;10.27;;;17.50;99.90;;;;;;6220958;23;20416;-82
2021/07/23 03:16:14;;;;;;;12.50;9.03;;;17.50;99.90;;;;;;6220730;23;20411;-83
2021/07/23 03:18:41;;;;;;;12.93;11.47;;;17.50;99.90;;;;;;6221502;23;20419;-83
2021/07/23 03:21:08;;;;;;;11.90;10.70;;;17.50;99.90;;;;;;6221072;23;20654;-83
2021/07/23 03:23:36;;;;;;;14.60;12.17;;;17.40;99.90;;;;;;6220844;23;20452;-83
2021/07/23 03:26:06;;;;;;;12.97;10.93;;;17.40;99.90;;;;;;6221432;23;20419;-83
2021/07/23 03:28:33;;;;;;;11.80;10.70;;;17.30;99.90;;;;;;6220986;23;20462;-83
2021/07/23 03:31:00;;;;;;;13.47;12.07;;;17.30;99.90;;;;;;6221034;23;20478;-83
2021/07/23 03:33:27;;;;;;;11.97;9.87;;;17.30;99.90;;;;;;6220668;23;20407;-83
2021/07/23 03:35:53;;;;;;;11.87;10.67;;;17.20;99.90;;;;;;6220578;23;20453;-83
2021/07/23 03:38:20;;;;;;;13.00;11.43;;;17.20;99.90;;;;;;6221261;23;20411;-83
2021/07/23 03:40:48;;;;;;;11.17;10.07;;;17.20;99.90;;;;;;6220398;23;20421;-83
2021/07/23 03:43:15;;;;;;;13.77;11.23;;;17.20;99.90;;;;;;6221008;23;20416;-83
2021/07/23 03:45:41;;;;;;;12.07;10.97;;;17.10;99.90;;;;;;6221014;23;20414;-83
2021/07/23 03:48:08;;;;;;;18.13;11.17;;;17.10;99.90;;;;;;6220226;23;20461;-81
2021/07/23 03:50:35;;;;;;;13.10;10.50;;;17.10;99.90;;;;;;6220037;23;20438;-81
2021/07/23 03:53:02;;;;;;;11.17;10.07;;;17.10;99.90;;;;;;6219580;23;20408;-81
2021/07/23 03:55:28;;;;;;;15.70;11.37;;;17.10;99.90;;;;;;6220531;23;20443;-81
2021/07/23 03:57:56;;;;;;;11.83;10.63;;;17.10;99.90;;;;;;6220482;23;20415;-81
2021/07/23 04:00:24;;;;;;;13.07;11.77;;;17.00;99.90;;;;;;6220730;23;20760;-81
2021/07/23 04:02:50;;;;;;;11.90;10.80;;;17.10;99.90;;;;;;6219983;23;20410;-81
2021/07/23 04:05:17;;;;;;;13.03;11.40;;;17.00;99.90;;;;;;6220163;23;20409;-81
2021/07/23 04:07:44;;;;;;;12.70;11.40;;;17.00;99.90;;;;;;6220545;23;20416;-81
2021/07/23 04:10:11;;;;;;;12.67;11.23;;;17.00;99.90;;;;;;6219912;23;20434;-81
2021/07/23 04:12:38;;;;;;;12.27;11.07;;;17.00;99.90;;;;;;6220317;23;20411;-81
2021/07/23 04:15:09;;;;;;;12.47;11.10;;;17.00;99.90;;;;;;6220226;23;20442;-81
2021/07/23 04:17:36;;;;;;;12.50;10.40;;;16.90;99.90;;;;;;6220364;23;20885;-81
2021/07/23 04:20:04;;;;;;;12.07;10.97;;;17.00;99.90;;;;;;6220271;23;20431;-81
2021/07/23 04:22:30;;;;;;;14.57;11.97;;;17.00;99.90;;;;;;6219854;23;20410;-81
2021/07/23 04:24:57;;;;;;;13.73;11.20;;;16.90;99.90;;;;;;6220683;23;20406;-81
2021/07/23 04:27:24;;;;;;;12.20;10.30;;;17.00;99.90;;;;;;6219842;23;20874;-81
2021/07/23 04:29:50;;;;;;;14.83;12.17;;;16.90;99.90;;;;;;6220106;23;20430;-81
2021/07/23 04:32:18;;;;;;;13.60;12.20;;;17.00;99.90;;;;;;6219051;23;20411;-81
2021/07/23 04:34:45;;;;;;;12.97;10.87;;;17.00;99.90;;;;;;6220286;23;20768;-81
2021/07/23 04:37:12;;;;;;;14.03;11.67;;;16.90;99.90;;;;;;6220474;23;20410;-81
2021/07/23 04:39:39;;;;;;;11.23;10.00;;;16.90;99.90;;;;;;6219921;23;20431;-81
2021/07/23 04:42:07;;;;;;;12.60;11.27;;;17.00;99.90;;;;;;6219846;23;20422;-80
2021/07/23 04:44:34;;;;;;;14.90;10.60;;;17.00;99.90;;;;;;6220201;23;20399;-81
2021/07/23 04:47:01;;;;;;;11.20;10.00;;;17.00;99.90;;;;;;6220383;23;20411;-81
2021/07/23 04:49:29;;;;;;;13.90;10.80;;;17.10;99.90;;;;;;6220474;23;20431;-81
2021/07/23 04:51:56;;;;;;;13.87;11.10;;;17.10;99.90;;;;;;6228318;22;20454;-86
2021/07/23 04:54:23;;;;;;;12.90;11.60;;;17.10;99.90;;;;;;6231616;23;20447;-86
2021/07/23 04:56:52;;;;;;;12.27;11.10;;;17.10;99.90;;;;;;6230828;23;20422;-88
2021/07/23 04:59:19;;;;;;;13.67;10.60;;;17.10;99.90;;;;;;6231677;23;20412;-86
2021/07/23 05:01:46;;;;;;;14.07;11.90;;;17.10;99.90;;;;;;6232370;23;20434;-88
2021/07/23 05:04:13;;;;;;;13.20;11.57;;;17.10;99.90;;;;;;6233131;23;20403;-86
2021/07/23 05:06:42;;;;;;;13.10;11.80;;;17.10;99.90;;;;;;6234050;23;20470;-87
2021/07/23 05:09:08;;;;;;;11.63;10.33;;;17.20;99.90;;;;;;6236598;23;20395;-85
2021/07/23 05:11:36;;;;;;;12.37;10.80;;;17.20;99.90;;;;;;6236321;23;20456;-86
2021/07/23 05:14:03;;;;;;;11.20;10.10;;;17.30;99.90;;;;;;6233648;23;20447;-89
2021/07/23 05:16:30;;;;;;;12.73;11.30;;;17.30;99.90;;;;;;6232756;23;20443;-86
2021/07/23 05:18:58;;;;;;;14.10;11.87;;;17.40;99.90;;;;;;6233596;23;20415;-87
2021/07/23 05:21:25;;;;;;;13.17;11.77;;;17.50;99.90;;;;;;6233120;23;20430;-86
2021/07/23 05:23:53;;;;;;;14.10;12.53;;;17.60;99.90;;;;;;6232622;23;20656;-86
2021/07/23 05:26:20;;;;;;;11.20;10.10;;;17.60;99.90;;;;;;6232684;23;20494;-86
2021/07/23 05:28:47;;;;;;;12.30;11.07;;;17.70;99.90;;;;;;6232662;23;20412;-87
2021/07/23 05:31:14;;;;;;;11.70;10.60;;;17.70;99.90;;;;;;6232824;23;20518;-86
2021/07/23 05:33:40;;;;;;;12.80;11.70;;;17.80;99.90;;;;;;6233982;23;20449;-87
2021/07/23 05:36:07;;;;;;;11.70;10.50;;;17.80;99.90;;;;;;6233044;23;20443;-86
2021/07/23 05:38:34;;;;;;;14.30;11.50;;;18.00;99.90;;;;;;6233928;23;20403;-86
2021/07/23 05:41:09;;;;;;;14.50;11.70;;;18.00;99.90;;;;;;6232639;23;20490;-89
2021/07/23 05:43:36;;;;;;;12.20;11.00;;;18.10;99.90;;;;;;6233162;23;20425;-87
2021/07/23 05:46:05;;;;;;;13.37;11.97;;;18.20;99.90;;;;;;6234155;23;20412;-89
2021/07/23 05:48:31;;;;;;;15.17;12.47;;;18.20;99.90;;;;;;6233785;23;20442;-87
2021/07/23 05:51:01;;;;;;;14.13;11.60;;;18.30;99.90;;;;;;6233327;23;20744;-87
2021/07/23 05:53:28;;;;;;;15.53;12.63;;;18.40;99.90;;;;;;6233780;23;20439;-87
2021/07/23 05:55:55;;;;;;;13.80;12.40;;;18.40;99.90;;;;;;6233691;23;20459;-88
2021/07/23 05:58:23;;;;;;;13.10;11.10;;;18.50;99.90;;;;;;6232718;23;20424;-87
2021/07/23 06:00:49;;;;;;;12.80;11.47;;;18.60;99.90;;;;;;6232831;23;20827;-85
2021/07/23 06:03:16;;;;;;;14.20;12.70;;;18.70;99.90;;;;;;6233775;23;20411;-86
2021/07/23 06:05:43;;;;;;;14.90;13.50;;;18.80;99.90;;;;;;6234578;23;20405;-84
2021/07/23 06:08:10;;;;;;;15.40;13.90;;;18.90;99.90;;;;;;6234223;23;20423;-87
2021/07/23 06:10:36;;;;;;;15.73;12.23;;;19.00;99.90;;;;;;6233321;23;20516;-87
2021/07/23 06:13:03;;;;;;;15.23;11.93;;;19.10;99.90;;;;;;6232967;23;20489;-89
2021/07/23 06:15:32;;;;;;;12.30;10.97;;;19.10;99.90;;;;;;6232915;23;20444;-85
2021/07/23 06:17:59;;;;;;;14.83;12.90;;;19.20;99.90;;;;;;6233108;23;20397;-87
2021/07/23 06:20:27;;;;;;;13.10;11.70;;;19.30;99.90;;;;;;6231773;23;20435;-85
2021/07/23 06:22:55;;;;;;;15.90;13.70;;;19.40;99.90;;;;;;6232386;23;20400;-88
2021/07/23 06:25:22;;;;;;;16.73;14.97;;;19.50;99.90;;;;;;6232198;23;20520;-84
2021/07/23 06:27:49;;;;;;;15.33;12.70;;;19.50;99.90;;;;;;6231881;23;20431;-87
2021/07/23 06:30:16;;;;;;;13.87;12.50;;;19.60;99.90;;;;;;6233145;23;20490;-89
2021/07/23 06:32:44;;;;;;;16.20;12.97;;;19.70;99.90;;;;;;6234007;23;20417;-86
2021/07/23 06:35:11;;;;;;;15.93;12.40;;;19.70;99.90;;;;;;6234454;23;20440;-85
2021/07/23 06:37:37;;;;;;;15.03;13.50;;;19.80;99.90;;;;;;6234145;23;20927;-89
2021/07/23 06:40:05;;;;;;;15.20;13.60;;;19.90;99.90;;;;;;6233960;23;20401;-87
2021/07/23 06:42:35;;;;;;;13.80;12.30;;;19.90;99.90;;;;;;6233657;23;20409;-87
2021/07/23 06:45:02;;;;;;;16.10;12.77;;;20.00;99.90;;;;;;6232713;23;20406;-89
2021/07/23 06:47:28;;;;;;;13.03;11.73;;;20.10;99.90;;;;;;6226319;23;20409;-86
2021/07/23 06:49:56;;;;;;;15.43;13.30;;;20.20;99.90;;;;;;6218922;23;20409;-86
2021/07/23 06:52:24;;;;;;;14.67;13.17;;;20.30;99.90;;;;;;6219182;23;20404;-86
2021/07/23 06:54:50;;;;;;;18.50;15.07;;;20.40;99.90;;;;;;6219514;23;20477;-87
2021/07/23 06:57:17;;;;;;;14.63;12.67;;;20.50;99.90;;;;;;6219655;23;20753;-86
2021/07/23 06:59:44;;;;;;;16.80;15.10;;;20.60;99.90;;;;;;6218873;23;20436;-86
2021/07/23 07:02:11;;;;;;;14.67;12.57;;;20.60;99.90;;;;;;6217396;23;20924;-86
2021/07/23 07:04:38;;;;;;;14.83;13.53;;;20.70;99.90;;;;;;6217168;23;20416;-86
2021/07/23 07:07:07;;;;;;;12.63;11.47;;;20.80;99.90;;;;;;6216849;23;20410;-87
2021/07/23 07:09:34;;;;;;;15.23;13.63;;;20.90;99.90;;;;;;6215222;23;20406;-86
2021/07/23 07:12:01;;;;;;;12.87;11.10;;;20.90;99.90;;;;;;6215169;23;20494;-86
2021/07/23 07:14:28;;;;;;;17.97;12.20;;;21.00;99.90;;;;;;6216638;23;20395;-86
2021/07/23 07:16:55;;;;;;;16.30;11.87;;;21.10;99.90;;;;;;6215750;23;20454;-86
2021/07/23 07:19:22;;;;;;;13.70;12.40;;;21.10;99.90;;;;;;6217720;23;20422;-87
2021/07/23 07:21:49;;;;;;;14.13;12.67;;;21.20;99.90;;;;;;6219565;23;20450;-85
2021/07/23 07:24:19;;;;;;;14.20;12.33;;;21.20;99.90;;;;;;6219811;23;20773;-85
2021/07/23 07:26:48;;;;;;;16.37;12.30;;;21.30;99.90;;;;;;6219169;23;20928;-86
2021/07/23 07:29:15;;;;;;;13.93;12.50;;;21.40;99.90;;;;;;6220080;23;20460;-85
2021/07/23 07:31:42;;;;;;;15.20;13.60;;;21.40;99.90;;;;;;6220409;23;20489;-86
2021/07/23 07:34:10;;;;;;;18.17;14.80;;;21.50;99.90;;;;;;6219537;23;20406;-85
2021/07/23 07:36:36;;;;;;;12.93;11.70;;;21.50;99.90;;;;;;6222052;23;20543;-85
2021/07/23 07:39:04;;;;;;;14.27;12.90;;;21.60;99.90;;;;;;6224670;23;20414;-86
2021/07/23 07:41:32;;;;;;;13.97;12.50;;;21.60;99.90;;;;;;6224030;23;20441;-85
2021/07/23 07:43:59;;;;;;;15.53;13.60;;;21.60;99.90;;;;;;6226498;23;20393;-85
2021/07/23 07:46:26;;;;;;;15.63;13.87;;;21.70;99.90;;;;;;6228065;23;20403;-86
2021/07/23 07:48:53;;;;;;;14.70;12.13;;;21.70;99.90;;;;;;6228528;23;20410;-85
2021/07/23 07:51:19;;;;;;;12.67;11.40;;;21.80;99.90;;;;;;6228714;23;20446;-84
2021/07/23 07:53:46;;;;;;;16.63;11.97;;;21.80;99.90;;;;;;6227910;23;20418;-85
2021/07/23 07:56:14;;;;;;;13.83;12.13;;;21.90;99.90;;;;;;6227974;23;20447;-84
2021/07/23 07:58:43;;;;;;;13.30;12.00;;;22.00;99.90;;;;;;6228526;23;20402;-85
2021/07/23 08:01:10;;;;;;;17.07;13.53;;;22.10;99.90;;;;;;6226743;23;20434;-86
2021/07/23 08:03:38;;;;;;;13.83;12.37;;;22.20;99.90;;;;;;6226223;23;20414;-84
2021/07/23 08:06:06;;;;;;;14.27;12.80;;;22.20;99.90;;;;;;6223331;23;20417;-83
2021/07/23 08:08:33;;;;;;;20.90;13.03;;;22.30;99.50;;;;;;6220359;23;21103;-83
2021/07/23 08:11:00;;;;;;;29.13;14.97;;;22.40;99.70;;;;;;6220882;23;20440;-82
2021/07/23 08:13:27;;;;;;;12.90;11.70;;;22.50;99.90;;;;;;6221274;23;20412;-83
2021/07/23 08:15:58;;;;;;;18.53;15.70;;;22.50;99.10;;;;;;6222792;23;20469;-86
2021/07/23 08:18:25;;;;;;;11.07;10.07;;;22.60;98.50;;;;;;6196591;23;20926;-84
2021/07/23 08:20:53;;;;;;;15.80;14.10;;;22.70;97.60;;;;;;6225164;23;20523;-85
2021/07/23 08:23:21;;;;;;;12.37;11.23;;;22.80;98.20;;;;;;6225322;23;20438;-84
2021/07/23 08:25:48;;;;;;;12.17;10.90;;;23.00;97.90;;;;;;6225831;23;20411;-85
2021/07/23 08:28:16;;;;;;;17.93;12.23;;;23.10;97.50;;;;;;6224044;23;20830;-84
2021/07/23 08:30:43;;;;;;;12.70;11.50;;;23.10;97.40;;;;;;6221037;23;20437;-82
2021/07/23 08:33:11;;;;;;;11.77;10.73;;;23.30;97.80;;;;;;6220341;23;20745;-80
2021/07/23 08:35:39;;;;;;;11.30;10.30;;;23.40;98.00;;;;;;6221150;23;20955;-81
2021/07/23 08:38:06;;;;;;;12.10;10.90;;;23.60;98.10;;;;;;6221355;23;20455;-84
2021/07/23 08:40:33;;;;;;;12.80;11.43;;;23.60;97.20;;;;;;6221331;23;20435;-83
2021/07/23 08:43:00;;;;;;;13.60;12.30;;;23.60;97.20;;;;;;6221538;23;20485;-83
2021/07/23 08:45:27;;;;;;;13.27;11.87;;;23.70;97.30;;;;;;6221962;23;20415;-83
2021/07/23 08:47:55;;;;;;;13.03;11.73;;;23.70;96.30;;;;;;6221499;23;20433;-81
2021/07/23 08:50:25;;;;;;;12.97;11.70;;;23.70;96.70;;;;;;6221967;23;20440;-84
2021/07/23 08:52:55;;;;;;;13.40;12.10;;;23.70;96.70;;;;;;6231712;23;20422;-86
2021/07/23 08:58:39;;;;;;;12.83;11.53;;;24.00;96.30;;;;;;5994788;24;20415;-82
2021/07/23 09:01:07;;;;;;;12.10;11.00;;;24.10;96.20;;;;;;6104932;23;20441;-80
2021/07/23 09:03:34;;;;;;;12.90;11.70;;;24.30;96.70;;;;;;6227945;23;20409;-80
2021/07/23 09:06:15;;;;;;;12.90;11.70;;;24.40;96.20;;;;;;6232003;23;20422;-79
2021/07/23 09:08:46;;;;;;;13.10;11.77;;;24.60;95.80;;;;;;6228702;23;20398;-80
2021/07/23 09:11:13;;;;;;;12.10;11.03;;;24.70;95.40;;;;;;6224128;23;20444;-80
2021/07/23 09:13:40;;;;;;;12.13;10.93;;;24.80;94.50;;;;;;6222439;23;20416;-81
2021/07/23 09:16:24;;;;;;;11.70;10.60;;;24.90;94.20;;;;;;6222893;23;20842;-81
2021/07/23 09:19:05;;;;;;;12.23;11.03;;;25.00;94.30;;;;;;6220848;23;20390;-80
2021/07/23 09:21:36;;;;;;;12.83;11.60;;;25.00;94.10;;;;;;6219557;23;20465;-81
2021/07/23 09:24:03;;;;;;;11.57;10.57;;;25.10;93.90;;;;;;6221130;23;20437;-80
2021/07/23 09:26:41;;;;;;;13.23;12.03;;;25.10;94.10;;;;;;6220176;23;20403;-81
2021/07/23 09:29:08;;;;;;;12.20;11.00;;;25.20;94.60;;;;;;6220354;23;20390;-82
2021/07/23 09:31:35;;;;;;;12.43;11.23;;;25.30;94.30;;;;;;6220774;23;20429;-81
2021/07/23 09:34:04;;;;;;;11.93;10.80;;;25.40;93.40;;;;;;6219711;23;20410;-81
2021/07/23 09:36:32;;;;;;;12.40;10.70;;;25.50;93.30;;;;;;6219840;23;20481;-80
2021/07/23 09:39:04;;;;;;;12.20;10.97;;;25.60;92.30;;;;;;6219961;23;20414;-79
2021/07/23 09:41:31;;;;;;;10.13;9.23;;;25.70;92.10;;;;;;6219970;23;20427;-80
2021/07/23 09:44:00;;;;;;;11.27;10.07;;;25.70;91.10;;;;;;6220274;23;20420;-80
2021/07/23 09:46:29;;;;;;;9.70;8.90;;;25.70;90.60;;;;;;6221403;23;20416;-80
2021/07/23 09:49:00;;;;;;;11.33;10.23;;;25.80;89.20;;;;;;6221503;23;20421;-80
2021/07/23 09:51:26;;;;;;;11.67;10.47;;;25.90;90.80;;;;;;6220220;23;20503;-81
2021/07/23 09:53:56;;;;;;;10.13;9.33;;;25.80;87.90;;;;;;6220921;23;20441;-78
2021/07/23 09:56:24;;;;;;;10.40;9.50;;;25.90;88.30;;;;;;6220044;23;20442;-79
2021/07/23 09:58:57;;;;;;;10.50;9.60;;;26.00;89.80;;;;;;6220888;23;20413;-79
2021/07/23 10:01:29;;;;;;;10.47;9.57;;;26.10;89.60;;;;;;6220484;23;20436;-79
2021/07/23 10:03:58;;;;;;;11.27;10.17;;;26.30;88.70;;;;;;6220372;23;20995;-79
2021/07/23 10:06:30;;;;;;;11.27;10.37;;;26.40;86.30;;;;;;6220910;23;20415;-79
2021/07/23 10:09:05;;;;;;;11.53;9.50;;;26.50;88.50;;;;;;6220060;23;20455;-79
2021/07/23 10:11:33;;;;;;;11.20;10.20;;;26.70;86.70;;;;;;6220430;23;20437;-79
2021/07/23 10:14:02;;;;;;;11.40;10.20;;;26.80;87.00;;;;;;6220495;23;20406;-80
2021/07/23 10:16:30;;;;;;;10.10;9.30;;;27.00;84.90;;;;;;6221123;23;20447;-80
2021/07/23 10:18:59;;;;;;;11.60;10.47;;;27.10;85.20;;;;;;6221835;23;20417;-80
2021/07/23 10:21:26;;;;;;;11.20;10.10;;;27.20;81.60;;;;;;6220474;23;20447;-78
2021/07/23 10:23:54;;;;;;;11.97;10.87;;;27.10;81.20;;;;;;6220168;23;20412;-79
2021/07/23 10:26:27;;;;;;;10.60;9.80;;;27.20;82.10;;;;;;6219484;23;20876;-79
2021/07/23 10:29:01;;;;;;;11.03;9.93;;;27.30;83.30;;;;;;6220549;23;20404;-79
2021/07/23 10:31:45;;;;;;;10.77;9.77;;;27.30;81.20;;;;;;6219832;23;20450;-79
2021/07/23 10:34:11;;;;;;;11.97;10.80;;;27.50;84.50;;;;;;6220456;23;20434;-79
2021/07/23 10:36:42;;;;;;;10.90;9.90;;;27.60;83.20;;;;;;6220688;23;20444;-79
2021/07/23 10:39:17;;;;;;;12.00;10.83;;;27.60;82.30;;;;;;6221028;23;20393;-79
2021/07/23 10:42:29;;;;;;;12.00;10.83;;;27.80;82.30;;;;;;6220647;23;20431;-79
2021/07/23 10:44:56;;;;;;;11.50;10.50;;;27.90;83.00;;;;;;6220421;23;20550;-79
2021/07/23 10:47:40;;;;;;;11.03;10.20;;;28.10;85.80;;;;;;6220534;23;20409;-79
2021/07/23 10:52:37;;;;;;;11.40;10.47;;;28.60;82.30;;;;;;6216179;23;20475;-83
2021/07/23 10:55:20;;;;;;;12.10;10.50;;;28.80;78.60;;;;;;6218843;23;20404;-84
2021/07/23 10:58:41;;;;;;;11.40;10.30;;;28.90;75.30;;;;;;6217605;23;20446;-83
2021/07/23 11:01:08;;;;;;;12.23;11.23;;;29.00;75.60;;;;;;6219265;23;20479;-84
2021/07/23 11:03:51;;;;;;;12.87;11.60;;;29.10;76.00;;;;;;6217959;23;20416;-84
2021/07/23 11:06:21;;;;;;;11.10;10.10;;;29.20;76.60;;;;;;6214781;23;20417;-84
2021/07/23 11:08:50;;;;;;;14.10;11.10;;;29.30;78.20;;;;;;6220234;23;20900;-84
2021/07/23 11:11:17;;;;;;;12.57;11.37;;;29.60;77.70;;;;;;6223077;23;20427;-83
2021/07/23 11:13:46;;;;;;;12.00;10.73;;;29.90;73.10;;;;;;6220104;23;20414;-84
2021/07/23 11:16:15;;;;;;;10.80;9.80;;;30.20;72.10;;;;;;6220908;23;20409;-84
2021/07/23 11:19:33;;;;;;;11.77;10.10;;;30.50;71.80;;;;;;6216641;23;20500;-85
2021/07/23 11:22:00;;;;;;;13.47;10.17;;;30.90;68.90;;;;;;6209167;23;20431;-84
2021/07/23 11:25:14;;;;;;;12.60;11.43;;;31.30;66.00;;;;;;6215706;23;20408;-84
2021/07/23 11:28:05;;;;;;;10.40;9.60;;;31.50;62.80;;;;;;6093712;23;20963;-85
2021/07/23 11:30:44;;;;;;;11.83;10.63;;;31.40;63.00;;;;;;6094104;23;20439;-85
2021/07/23 11:33:12;;;;;;;10.10;9.13;;;31.50;62.00;;;;;;6088738;23;20425;-84
2021/07/23 11:35:47;;;;;;;12.17;11.00;;;31.50;59.30;;;;;;6093875;23;20426;-84
2021/07/23 11:38:27;;;;;;;12.13;11.13;;;31.40;60.20;;;;;;6203377;23;20459;-84
2021/07/23 11:41:09;;;;;;;12.17;10.97;;;31.50;60.70;;;;;;6215421;23;20436;-84
2021/07/23 11:44:06;;;;;;;12.53;11.43;;;31.60;58.40;;;;;;6214374;23;20507;-84
2021/07/23 11:46:47;;;;;;;11.77;10.57;;;31.00;59.00;;;;;;6214701;23;20503;-84
2021/07/23 11:49:14;;;;;;;10.83;9.93;;;31.00;63.70;;;;;;6214940;23;20417;-83
2021/07/23 11:51:43;;;;;;;11.23;9.90;;;31.10;60.80;;;;;;6218151;23;20448;-85
2021/07/23 11:54:12;;;;;;;13.20;11.90;;;31.40;60.50;;;;;;6217460;23;20459;-84
2021/07/23 11:56:39;;;;;;;11.43;10.40;;;31.80;61.20;;;;;;6213792;23;20853;-85
2021/07/23 11:59:07;;;;;;;12.13;11.03;;;32.40;61.10;;;;;;6214527;23;20433;-84
2021/07/23 12:01:37;;;;;;;11.00;10.10;;;32.80;58.50;;;;;;6213346;23;20468;-84
2021/07/23 12:04:06;;;;;;;10.83;9.93;;;32.90;57.80;;;;;;6215233;23;20416;-84
2021/07/23 12:06:34;;;;;;;12.33;11.37;;;33.10;56.50;;;;;;6214577;23;20747;-84
2021/07/23 12:09:04;;;;;;;11.77;10.83;;;33.20;57.50;;;;;;6214781;23;20420;-84
2021/07/23 12:11:32;;;;;;;11.80;10.70;;;33.40;56.70;;;;;;6214889;23;20436;-84
2021/07/23 12:13:59;;;;;;;10.97;10.17;;;33.60;56.40;;;;;;6216197;23;20518;-84
2021/07/23 12:16:26;;;;;;;12.10;11.07;;;33.70;55.20;;;;;;6218462;23;20409;-84
2021/07/23 12:18:57;;;;;;;9.90;9.10;;;33.90;53.90;;;;;;6217465;23;20405;-84
2021/07/23 12:21:26;;;;;;;12.30;11.20;;;34.30;54.10;;;;;;6214241;23;20436;-84
2021/07/23 12:24:04;;;;;;;11.90;10.67;;;34.60;53.50;;;;;;6218608;23;20416;-85
2021/07/23 12:26:34;;;;;;;12.17;10.97;;;35.00;52.30;;;;;;6217514;23;20499;-84
2021/07/23 12:29:01;;;;;;;10.30;9.40;;;35.50;50.70;;;;;;6214595;23;20492;-85
2021/07/23 12:31:28;;;;;;;10.77;9.80;;;35.90;49.40;;;;;;6215592;23;20515;-84
2021/07/23 12:34:06;;;;;;;10.47;9.57;;;36.50;50.10;;;;;;6217631;23;20426;-85
2021/07/23 12:36:46;;;;;;;10.63;9.63;;;37.00;47.40;;;;;;6214332;23;20419;-85
2021/07/23 12:39:13;;;;;;;11.87;10.87;;;37.60;48.80;;;;;;6214455;23;20476;-83
2021/07/23 12:41:41;;;;;;;10.67;9.77;;;38.30;45.70;;;;;;6214147;23;20437;-83
2021/07/23 12:44:09;;;;;;;12.20;11.10;;;38.90;44.50;;;;;;6214929;23;20788;-85